sensor_id;sensor_type;location;lat;lon;timestamp;temperature;humidity
19652;DHT22;9974;52.146;14.668;2023-08-07T00:05:55;14.10;99.90
19652;DHT22;9974;52.146;14.668;2023-08-07T00:13:13;14.00;99.90
19652;DHT22;9974;52.146;14.668;2023-08-07T00:18:05;14.30;99.90
19652;DHT22;9974;52.146;14.668;2023-08-07T00:20:31;14.50;99.90
19652;DHT22;9974;52.146;14.668;2023-08-07T00:25:23;14.60;99.90
19652;DHT22;9974;52.146;14.668;2023-08-07T00:27:49;14.60;99.90
19652;DHT22;9974;52.146;14.668;2023-08-07T00:30:14;14.20;99.90
19652;DHT22;9974;52.146;14.668;2023-08-07T00:35:06;14.50;99.90
19652;DHT22;9974;52.146;14.668;2023-08-07T00:39:59;14.50;99.90
19652;DHT22;9974;52.146;14.668;2023-08-07T00:42:25;13.80;99.90
19652;DHT22;9974;52.146;14.668;2023-08-07T00:47:16;14.20;99.90
19652;DHT22;9974;52.146;14.668;2023-08-07T00:49:42;13.90;99.90
19652;DHT22;9974;52.146;14.668;2023-08-07T00:52:08;13.80;99.90
19652;DHT22;9974;52.146;14.668;2023-08-07T00:54:34;14.00;99.90
19652;DHT22;9974;52.146;14.668;2023-08-07T00:57:10;14.10;99.90
19652;DHT22;9974;52.146;14.668;2023-08-07T00:59:37;14.10;99.90
19652;DHT22;9974;52.146;14.668;2023-08-07T01:02:04;13.70;99.90
19652;DHT22;9974;52.146;14.668;2023-08-07T01:04:31;14.00;99.90
19652;DHT22;9974;52.146;14.668;2023-08-07T01:06:56;13.70;99.90
19652;DHT22;9974;52.146;14.668;2023-08-07T01:09:22;14.30;99.90
19652;DHT22;9974;52.146;14.668;2023-08-07T01:11:50;13.80;99.90
19652;DHT22;9974;52.146;14.668;2023-08-07T01:14:37;14.00;99.90
19652;DHT22;9974;52.146;14.668;2023-08-07T01:17:15;13.80;99.90
19652;DHT22;9974;52.146;14.668;2023-08-07T01:19:42;14.10;99.90
19652;DHT22;9974;52.146;14.668;2023-08-07T01:22:09;13.90;99.90
19652;DHT22;9974;52.146;14.668;2023-08-07T01:32:59;13.50;99.90
19652;DHT22;9974;52.146;14.668;2023-08-07T01:35:34;13.90;99.90
19652;DHT22;9974;52.146;14.668;2023-08-07T01:38:01;13.60;99.90
19652;DHT22;9974;52.146;14.668;2023-08-07T01:40:28;13.70;99.90
19652;DHT22;9974;52.146;14.668;2023-08-07T01:45:23;14.30;99.90
19652;DHT22;9974;52.146;14.668;2023-08-07T01:50:15;14.30;99.90
19652;DHT22;9974;52.146;14.668;2023-08-07T01:55:07;13.70;99.90
19652;DHT22;9974;52.146;14.668;2023-08-07T01:59:59;13.60;99.90
19652;DHT22;9974;52.146;14.668;2023-08-07T02:02:25;13.70;99.90
19652;DHT22;9974;52.146;14.668;2023-08-07T02:04:50;13.90;99.90
19652;DHT22;9974;52.146;14.668;2023-08-07T02:07:16;13.50;99.90
19652;DHT22;9974;52.146;14.668;2023-08-07T02:09:42;14.20;99.90
19652;DHT22;9974;52.146;14.668;2023-08-07T02:12:07;13.80;99.90
19652;DHT22;9974;52.146;14.668;2023-08-07T02:14:33;14.00;99.90
19652;DHT22;9974;52.146;14.668;2023-08-07T02:19:25;13.70;99.90
19652;DHT22;9974;52.146;14.668;2023-08-07T02:26:44;14.00;99.90
19652;DHT22;9974;52.146;14.668;2023-08-07T02:29:10;14.00;99.90
19652;DHT22;9974;52.146;14.668;2023-08-07T02:34:02;14.30;99.90
19652;DHT22;9974;52.146;14.668;2023-08-07T02:36:27;13.80;99.90
19652;DHT22;9974;52.146;14.668;2023-08-07T02:41:19;14.00;99.90
19652;DHT22;9974;52.146;14.668;2023-08-07T02:43:45;14.20;99.90
19652;DHT22;9974;52.146;14.668;2023-08-07T02:46:10;13.80;99.90
19652;DHT22;9974;52.146;14.668;2023-08-07T02:48:36;13.90;99.90
19652;DHT22;9974;52.146;14.668;2023-08-07T02:51:02;13.80;99.90
19652;DHT22;9974;52.146;14.668;2023-08-07T02:53:28;14.10;99.90
19652;DHT22;9974;52.146;14.668;2023-08-07T02:55:53;14.10;99.90
19652;DHT22;9974;52.146;14.668;2023-08-07T03:00:45;14.00;99.90
19652;DHT22;9974;52.146;14.668;2023-08-07T03:03:11;13.90;99.90
19652;DHT22;9974;52.146;14.668;2023-08-07T03:05:37;13.80;99.90
19652;DHT22;9974;52.146;14.668;2023-08-07T03:08:02;13.80;99.90
19652;DHT22;9974;52.146;14.668;2023-08-07T03:10:28;14.10;99.90
19652;DHT22;9974;52.146;14.668;2023-08-07T03:12:54;13.80;99.90
19652;DHT22;9974;52.146;14.668;2023-08-07T03:17:45;14.30;99.90
19652;DHT22;9974;52.146;14.668;2023-08-07T03:20:11;14.60;99.90
19652;DHT22;9974;52.146;14.668;2023-08-07T03:25:03;14.50;99.90
19652;DHT22;9974;52.146;14.668;2023-08-07T03:27:29;13.80;99.90
19652;DHT22;9974;52.146;14.668;2023-08-07T03:29:55;13.90;99.90
19652;DHT22;9974;52.146;14.668;2023-08-07T03:32:20;14.60;99.90
19652;DHT22;9974;52.146;14.668;2023-08-07T03:34:46;14.10;99.90
19652;DHT22;9974;52.146;14.668;2023-08-07T03:37:12;13.90;99.90
19652;DHT22;9974;52.146;14.668;2023-08-07T03:39:37;14.00;99.90
19652;DHT22;9974;52.146;14.668;2023-08-07T03:42:03;13.80;99.90
19652;DHT22;9974;52.146;14.668;2023-08-07T03:46:55;14.10;99.90
19652;DHT22;9974;52.146;14.668;2023-08-07T03:51:49;13.80;99.90
19652;DHT22;9974;52.146;14.668;2023-08-07T03:54:14;14.40;99.90
19652;DHT22;9974;52.146;14.668;2023-08-07T03:59:06;14.00;99.90
19652;DHT22;9974;52.146;14.668;2023-08-07T04:01:32;14.90;99.90
19652;DHT22;9974;52.146;14.668;2023-08-07T04:03:57;14.50;99.90
19652;DHT22;9974;52.146;14.668;2023-08-07T04:06:23;14.60;99.90
19652;DHT22;9974;52.146;14.668;2023-08-07T04:08:49;14.10;99.90
19652;DHT22;9974;52.146;14.668;2023-08-07T04:11:15;14.50;99.90
19652;DHT22;9974;52.146;14.668;2023-08-07T04:13:41;14.00;99.90
19652;DHT22;9974;52.146;14.668;2023-08-07T04:16:07;14.90;99.90
19652;DHT22;9974;52.146;14.668;2023-08-07T04:25:52;14.30;99.90
19652;DHT22;9974;52.146;14.668;2023-08-07T04:28:19;15.10;99.90
19652;DHT22;9974;52.146;14.668;2023-08-07T04:30:45;14.90;99.90
19652;DHT22;9974;52.146;14.668;2023-08-07T04:33:15;14.70;99.90
19652;DHT22;9974;52.146;14.668;2023-08-07T04:35:40;15.00;99.90
19652;DHT22;9974;52.146;14.668;2023-08-07T04:40:32;14.30;99.90
19652;DHT22;9974;52.146;14.668;2023-08-07T04:42:58;14.90;99.90
19652;DHT22;9974;52.146;14.668;2023-08-07T04:45:23;14.30;99.90
19652;DHT22;9974;52.146;14.668;2023-08-07T04:47:49;14.30;99.90
19652;DHT22;9974;52.146;14.668;2023-08-07T04:50:15;15.00;99.90
19652;DHT22;9974;52.146;14.668;2023-08-07T04:55:07;14.60;99.90
19652;DHT22;9974;52.146;14.668;2023-08-07T04:57:32;14.90;99.90
19652;DHT22;9974;52.146;14.668;2023-08-07T05:02:24;15.30;99.90
19652;DHT22;9974;52.146;14.668;2023-08-07T05:07:16;14.50;99.90
19652;DHT22;9974;52.146;14.668;2023-08-07T05:09:42;15.60;99.90
19652;DHT22;9974;52.146;14.668;2023-08-07T05:14:34;15.10;99.90
19652;DHT22;9974;52.146;14.668;2023-08-07T05:16:59;15.40;99.90
19652;DHT22;9974;52.146;14.668;2023-08-07T05:19:25;15.00;99.90
19652;DHT22;9974;52.146;14.668;2023-08-07T05:21:51;15.20;99.90
19652;DHT22;9974;52.146;14.668;2023-08-07T05:24:17;14.90;99.90
19652;DHT22;9974;52.146;14.668;2023-08-07T05:26:43;15.60;99.90
19652;DHT22;9974;52.146;14.668;2023-08-07T05:31:35;16.00;99.90
19652;DHT22;9974;52.146;14.668;2023-08-07T05:36:27;15.60;99.90
19652;DHT22;9974;52.146;14.668;2023-08-07T05:38:54;15.60;99.90
19652;DHT22;9974;52.146;14.668;2023-08-07T05:43:46;14.90;99.90
19652;DHT22;9974;52.146;14.668;2023-08-07T05:46:11;14.80;99.90
19652;DHT22;9974;52.146;14.668;2023-08-07T05:48:37;15.20;99.90
19652;DHT22;9974;52.146;14.668;2023-08-07T05:51:03;15.10;99.90
19652;DHT22;9974;52.146;14.668;2023-08-07T05:55:55;16.10;99.90
19652;DHT22;9974;52.146;14.668;2023-08-07T05:58:21;16.00;99.90
19652;DHT22;9974;52.146;14.668;2023-08-07T06:00:46;15.50;99.90
19652;DHT22;9974;52.146;14.668;2023-08-07T06:05:38;16.20;99.90
19652;DHT22;9974;52.146;14.668;2023-08-07T06:08:04;15.50;99.90
19652;DHT22;9974;52.146;14.668;2023-08-07T06:10:30;16.00;99.90
19652;DHT22;9974;52.146;14.668;2023-08-07T06:17:48;16.50;99.90
19652;DHT22;9974;52.146;14.668;2023-08-07T06:22:42;16.60;99.90
19652;DHT22;9974;52.146;14.668;2023-08-07T06:25:08;17.20;99.90
19652;DHT22;9974;52.146;14.668;2023-08-07T06:30:00;17.20;99.90
19652;DHT22;9974;52.146;14.668;2023-08-07T06:32:27;16.50;99.90
19652;DHT22;9974;52.146;14.668;2023-08-07T06:34:52;15.50;99.90
19652;DHT22;9974;52.146;14.668;2023-08-07T06:37:19;17.30;99.90
19652;DHT22;9974;52.146;14.668;2023-08-07T06:42:11;16.30;99.90
19652;DHT22;9974;52.146;14.668;2023-08-07T06:44:37;17.10;99.90
19652;DHT22;9974;52.146;14.668;2023-08-07T06:47:03;16.60;99.90
19652;DHT22;9974;52.146;14.668;2023-08-07T06:49:29;17.00;99.90
19652;DHT22;9974;52.146;14.668;2023-08-07T06:51:57;17.20;99.90
19652;DHT22;9974;52.146;14.668;2023-08-07T06:54:23;16.80;99.90
19652;DHT22;9974;52.146;14.668;2023-08-07T06:56:49;16.90;99.90
19652;DHT22;9974;52.146;14.668;2023-08-07T06:59:14;17.00;99.90
19652;DHT22;9974;52.146;14.668;2023-08-07T07:01:40;16.90;99.90
19652;DHT22;9974;52.146;14.668;2023-08-07T07:04:05;17.40;99.90
19652;DHT22;9974;52.146;14.668;2023-08-07T07:06:31;17.40;99.90
19652;DHT22;9974;52.146;14.668;2023-08-07T07:11:23;16.90;99.90
19652;DHT22;9974;52.146;14.668;2023-08-07T07:13:50;17.40;99.90
19652;DHT22;9974;52.146;14.668;2023-08-07T07:16:17;17.50;99.90
19652;DHT22;9974;52.146;14.668;2023-08-07T07:26:01;17.10;99.90
19652;DHT22;9974;52.146;14.668;2023-08-07T07:28:27;17.30;99.90
19652;DHT22;9974;52.146;14.668;2023-08-07T07:30:53;17.40;99.90
19652;DHT22;9974;52.146;14.668;2023-08-07T07:33:19;17.20;99.90
19652;DHT22;9974;52.146;14.668;2023-08-07T07:43:03;17.20;99.90
19652;DHT22;9974;52.146;14.668;2023-08-07T07:45:29;17.20;99.90
19652;DHT22;9974;52.146;14.668;2023-08-07T07:47:55;17.90;99.90
19652;DHT22;9974;52.146;14.668;2023-08-07T07:52:47;17.10;99.90
19652;DHT22;9974;52.146;14.668;2023-08-07T07:55:12;17.70;99.90
19652;DHT22;9974;52.146;14.668;2023-08-07T07:57:39;17.60;99.90
19652;DHT22;9974;52.146;14.668;2023-08-07T08:00:06;17.40;99.90
19652;DHT22;9974;52.146;14.668;2023-08-07T08:05:02;18.00;99.90
19652;DHT22;9974;52.146;14.668;2023-08-07T08:07:27;18.30;99.90
19652;DHT22;9974;52.146;14.668;2023-08-07T08:12:21;18.40;99.90
19652;DHT22;9974;52.146;14.668;2023-08-07T08:14:47;18.70;99.90
19652;DHT22;9974;52.146;14.668;2023-08-07T08:17:13;18.10;99.90
19652;DHT22;9974;52.146;14.668;2023-08-07T08:19:39;18.40;99.90
19652;DHT22;9974;52.146;14.668;2023-08-07T08:22:04;19.20;99.90
19652;DHT22;9974;52.146;14.668;2023-08-07T08:24:30;19.50;99.90
19652;DHT22;9974;52.146;14.668;2023-08-07T08:26:57;19.50;99.90
19652;DHT22;9974;52.146;14.668;2023-08-07T08:29:23;18.80;99.90
19652;DHT22;9974;52.146;14.668;2023-08-07T08:31:48;19.30;99.90
19652;DHT22;9974;52.146;14.668;2023-08-07T08:34:14;18.80;99.90
19652;DHT22;9974;52.146;14.668;2023-08-07T08:36:40;19.50;99.90
19652;DHT22;9974;52.146;14.668;2023-08-07T08:41:32;18.80;99.90
19652;DHT22;9974;52.146;14.668;2023-08-07T08:43:59;19.30;99.90
19652;DHT22;9974;52.146;14.668;2023-08-07T08:46:29;19.40;99.90
19652;DHT22;9974;52.146;14.668;2023-08-07T08:48:57;18.80;99.90
19652;DHT22;9974;52.146;14.668;2023-08-07T08:51:24;18.80;99.90
19652;DHT22;9974;52.146;14.668;2023-08-07T08:53:52;18.90;99.90
19652;DHT22;9974;52.146;14.668;2023-08-07T08:56:19;19.10;99.90
19652;DHT22;9974;52.146;14.668;2023-08-07T08:58:48;19.00;99.90
19652;DHT22;9974;52.146;14.668;2023-08-07T09:01:17;18.70;99.90
19652;DHT22;9974;52.146;14.668;2023-08-07T09:03:47;18.80;99.90
19652;DHT22;9974;52.146;14.668;2023-08-07T09:06:13;18.90;99.90
19652;DHT22;9974;52.146;14.668;2023-08-07T09:08:43;19.20;99.90
19652;DHT22;9974;52.146;14.668;2023-08-07T09:11:10;19.50;99.90
19652;DHT22;9974;52.146;14.668;2023-08-07T09:13:37;19.50;99.90
19652;DHT22;9974;52.146;14.668;2023-08-07T09:16:04;19.10;99.90
19652;DHT22;9974;52.146;14.668;2023-08-07T09:18:34;19.20;99.90
19652;DHT22;9974;52.146;14.668;2023-08-07T09:23:26;19.30;99.90
19652;DHT22;9974;52.146;14.668;2023-08-07T09:26:03;20.70;99.90
19652;DHT22;9974;52.146;14.668;2023-08-07T09:28:33;20.30;99.90
19652;DHT22;9974;52.146;14.668;2023-08-07T09:30:59;20.20;99.90
19652;DHT22;9974;52.146;14.668;2023-08-07T09:33:30;19.40;99.90
19652;DHT22;9974;52.146;14.668;2023-08-07T09:36:02;20.20;99.90
19652;DHT22;9974;52.146;14.668;2023-08-07T09:38:29;19.60;99.90
19652;DHT22;9974;52.146;14.668;2023-08-07T09:41:02;19.60;99.90
19652;DHT22;9974;52.146;14.668;2023-08-07T09:43:29;19.80;99.90
19652;DHT22;9974;52.146;14.668;2023-08-07T09:46:07;20.00;99.90
19652;DHT22;9974;52.146;14.668;2023-08-07T09:48:40;19.70;99.90
19652;DHT22;9974;52.146;14.668;2023-08-07T09:51:06;19.50;99.90
19652;DHT22;9974;52.146;14.668;2023-08-07T09:53:32;18.90;99.90
19652;DHT22;9974;52.146;14.668;2023-08-07T09:55:58;19.20;99.90
19652;DHT22;9974;52.146;14.668;2023-08-07T09:58:24;18.50;99.90
19652;DHT22;9974;52.146;14.668;2023-08-07T10:00:51;18.60;99.90
19652;DHT22;9974;52.146;14.668;2023-08-07T10:03:21;18.30;99.90
19652;DHT22;9974;52.146;14.668;2023-08-07T10:05:48;18.10;99.90
19652;DHT22;9974;52.146;14.668;2023-08-07T10:08:13;18.00;99.90
19652;DHT22;9974;52.146;14.668;2023-08-07T10:10:39;18.10;99.90
19652;DHT22;9974;52.146;14.668;2023-08-07T10:13:05;18.20;99.90
19652;DHT22;9974;52.146;14.668;2023-08-07T10:15:32;18.60;99.90
19652;DHT22;9974;52.146;14.668;2023-08-07T10:17:59;18.20;99.90
19652;DHT22;9974;52.146;14.668;2023-08-07T10:20:27;18.50;99.90
19652;DHT22;9974;52.146;14.668;2023-08-07T10:22:57;18.00;99.90
19652;DHT22;9974;52.146;14.668;2023-08-07T10:25:39;18.10;99.90
19652;DHT22;9974;52.146;14.668;2023-08-07T10:28:11;18.00;99.90
19652;DHT22;9974;52.146;14.668;2023-08-07T10:30:39;17.70;99.90
19652;DHT22;9974;52.146;14.668;2023-08-07T10:35:33;17.70;99.90
19652;DHT22;9974;52.146;14.668;2023-08-07T10:38:06;18.50;99.90
19652;DHT22;9974;52.146;14.668;2023-08-07T10:40:33;17.80;99.90
19652;DHT22;9974;52.146;14.668;2023-08-07T10:43:13;18.00;99.90
19652;DHT22;9974;52.146;14.668;2023-08-07T10:45:39;18.20;99.90
19652;DHT22;9974;52.146;14.668;2023-08-07T10:48:06;17.80;99.90
19652;DHT22;9974;52.146;14.668;2023-08-07T10:53:21;17.70;99.90
19652;DHT22;9974;52.146;14.668;2023-08-07T10:55:53;17.80;99.90
19652;DHT22;9974;52.146;14.668;2023-08-07T10:58:29;17.50;99.90
19652;DHT22;9974;52.146;14.668;2023-08-07T11:01:17;16.90;99.90
19652;DHT22;9974;52.146;14.668;2023-08-07T11:06:26;17.70;99.90
19652;DHT22;9974;52.146;14.668;2023-08-07T11:08:54;17.20;99.90
19652;DHT22;9974;52.146;14.668;2023-08-07T11:11:20;17.60;99.90
19652;DHT22;9974;52.146;14.668;2023-08-07T11:13:45;18.10;99.90
19652;DHT22;9974;52.146;14.668;2023-08-07T11:16:12;17.70;99.90
19652;DHT22;9974;52.146;14.668;2023-08-07T11:18:38;17.70;99.90
19652;DHT22;9974;52.146;14.668;2023-08-07T11:21:07;17.50;99.90
19652;DHT22;9974;52.146;14.668;2023-08-07T11:23:34;17.60;99.90
19652;DHT22;9974;52.146;14.668;2023-08-07T11:26:01;18.30;99.90
19652;DHT22;9974;52.146;14.668;2023-08-07T11:30:55;19.20;99.90
19652;DHT22;9974;52.146;14.668;2023-08-07T11:33:23;18.90;99.90
19652;DHT22;9974;52.146;14.668;2023-08-07T11:35:49;19.40;99.90
19652;DHT22;9974;52.146;14.668;2023-08-07T11:38:29;19.00;99.90
19652;DHT22;9974;52.146;14.668;2023-08-07T11:41:01;19.10;99.90
19652;DHT22;9974;52.146;14.668;2023-08-07T11:45:56;19.20;99.90
19652;DHT22;9974;52.146;14.668;2023-08-07T11:48:27;18.80;99.90
19652;DHT22;9974;52.146;14.668;2023-08-07T11:50:54;18.90;99.90
19652;DHT22;9974;52.146;14.668;2023-08-07T11:53:21;18.90;99.90
19652;DHT22;9974;52.146;14.668;2023-08-07T11:55:57;19.50;99.90
19652;DHT22;9974;52.146;14.668;2023-08-07T11:58:25;20.00;99.90
19652;DHT22;9974;52.146;14.668;2023-08-07T12:00:52;19.20;99.90
19652;DHT22;9974;52.146;14.668;2023-08-07T12:03:32;19.40;99.90
19652;DHT22;9974;52.146;14.668;2023-08-07T12:08:41;19.60;99.90
19652;DHT22;9974;52.146;14.668;2023-08-07T12:11:11;19.80;99.90
19652;DHT22;9974;52.146;14.668;2023-08-07T12:13:39;19.30;99.90
19652;DHT22;9974;52.146;14.668;2023-08-07T12:16:07;20.00;99.90
19652;DHT22;9974;52.146;14.668;2023-08-07T12:18:33;19.30;99.90
19652;DHT22;9974;52.146;14.668;2023-08-07T12:21:05;19.70;99.90
19652;DHT22;9974;52.146;14.668;2023-08-07T12:23:33;19.10;99.90
19652;DHT22;9974;52.146;14.668;2023-08-07T12:25:59;19.20;99.90
19652;DHT22;9974;52.146;14.668;2023-08-07T12:28:25;19.50;99.90
19652;DHT22;9974;52.146;14.668;2023-08-07T12:30:51;19.60;99.90
19652;DHT22;9974;52.146;14.668;2023-08-07T12:33:17;19.70;99.90
19652;DHT22;9974;52.146;14.668;2023-08-07T12:35:44;20.20;99.90
19652;DHT22;9974;52.146;14.668;2023-08-07T12:38:10;19.40;99.90
19652;DHT22;9974;52.146;14.668;2023-08-07T12:40:36;20.00;99.90
19652;DHT22;9974;52.146;14.668;2023-08-07T12:43:03;19.90;99.90
19652;DHT22;9974;52.146;14.668;2023-08-07T12:45:29;20.30;99.90
19652;DHT22;9974;52.146;14.668;2023-08-07T12:47:55;20.30;99.90
19652;DHT22;9974;52.146;14.668;2023-08-07T12:52:47;20.00;99.90
19652;DHT22;9974;52.146;14.668;2023-08-07T12:55:13;19.60;99.90
19652;DHT22;9974;52.146;14.668;2023-08-07T12:57:41;19.30;99.90
19652;DHT22;9974;52.146;14.668;2023-08-07T13:00:11;19.60;99.90
19652;DHT22;9974;52.146;14.668;2023-08-07T13:02:44;19.70;99.90
19652;DHT22;9974;52.146;14.668;2023-08-07T13:07:38;19.50;99.90
19652;DHT22;9974;52.146;14.668;2023-08-07T13:10:05;20.00;99.90
19652;DHT22;9974;52.146;14.668;2023-08-07T13:12:37;19.60;99.90
19652;DHT22;9974;52.146;14.668;2023-08-07T13:15:05;19.90;99.90
19652;DHT22;9974;52.146;14.668;2023-08-07T13:17:32;20.60;99.90
19652;DHT22;9974;52.146;14.668;2023-08-07T13:19:59;20.20;99.90
19652;DHT22;9974;52.146;14.668;2023-08-07T13:22:25;20.30;99.90
19652;DHT22;9974;52.146;14.668;2023-08-07T13:27:17;19.90;99.90
19652;DHT22;9974;52.146;14.668;2023-08-07T13:29:44;19.20;99.90
19652;DHT22;9974;52.146;14.668;2023-08-07T13:32:09;19.20;99.90
19652;DHT22;9974;52.146;14.668;2023-08-07T13:34:36;19.30;99.90
19652;DHT22;9974;52.146;14.668;2023-08-07T13:37:02;20.00;99.90
19652;DHT22;9974;52.146;14.668;2023-08-07T13:39:29;19.50;99.90
19652;DHT22;9974;52.146;14.668;2023-08-07T13:41:55;19.50;99.90
19652;DHT22;9974;52.146;14.668;2023-08-07T13:44:21;20.20;99.90
19652;DHT22;9974;52.146;14.668;2023-08-07T13:46:47;19.80;99.90
19652;DHT22;9974;52.146;14.668;2023-08-07T13:49:14;19.80;99.90
19652;DHT22;9974;52.146;14.668;2023-08-07T13:51:40;19.90;99.90
19652;DHT22;9974;52.146;14.668;2023-08-07T13:54:06;20.10;99.90
19652;DHT22;9974;52.146;14.668;2023-08-07T13:58:59;20.10;99.90
19652;DHT22;9974;52.146;14.668;2023-08-07T14:01:25;19.70;99.90
19652;DHT22;9974;52.146;14.668;2023-08-07T14:03:51;19.70;99.90
19652;DHT22;9974;52.146;14.668;2023-08-07T14:06:16;19.20;99.90
19652;DHT22;9974;52.146;14.668;2023-08-07T14:11:08;18.30;99.90
19652;DHT22;9974;52.146;14.668;2023-08-07T14:13:34;18.90;99.90
19652;DHT22;9974;52.146;14.668;2023-08-07T14:15:59;18.50;99.90
19652;DHT22;9974;52.146;14.668;2023-08-07T14:18:25;18.90;99.90
19652;DHT22;9974;52.146;14.668;2023-08-07T14:23:18;18.80;99.90
19652;DHT22;9974;52.146;14.668;2023-08-07T14:25:44;18.90;99.90
19652;DHT22;9974;52.146;14.668;2023-08-07T14:28:10;18.90;99.90
19652;DHT22;9974;52.146;14.668;2023-08-07T14:30:36;19.30;99.90
19652;DHT22;9974;52.146;14.668;2023-08-07T14:33:01;19.20;99.90
19652;DHT22;9974;52.146;14.668;2023-08-07T14:35:27;18.80;99.90
19652;DHT22;9974;52.146;14.668;2023-08-07T14:37:53;18.90;99.90
19652;DHT22;9974;52.146;14.668;2023-08-07T14:42:44;19.40;99.90
19652;DHT22;9974;52.146;14.668;2023-08-07T14:45:10;19.70;99.90
19652;DHT22;9974;52.146;14.668;2023-08-07T14:47:36;19.20;99.90
19652;DHT22;9974;52.146;14.668;2023-08-07T14:50:02;19.70;99.90
19652;DHT22;9974;52.146;14.668;2023-08-07T14:52:27;19.90;99.90
19652;DHT22;9974;52.146;14.668;2023-08-07T14:54:54;19.70;99.90
19652;DHT22;9974;52.146;14.668;2023-08-07T14:59:48;19.60;99.90
19652;DHT22;9974;52.146;14.668;2023-08-07T15:04:40;19.90;99.90
19652;DHT22;9974;52.146;14.668;2023-08-07T15:07:06;20.00;99.90
19652;DHT22;9974;52.146;14.668;2023-08-07T15:09:32;19.40;99.90
19652;DHT22;9974;52.146;14.668;2023-08-07T15:11:57;20.00;99.90
19652;DHT22;9974;52.146;14.668;2023-08-07T15:14:23;19.20;99.90
19652;DHT22;9974;52.146;14.668;2023-08-07T15:16:49;19.60;99.90
19652;DHT22;9974;52.146;14.668;2023-08-07T15:19:14;18.90;99.90
19652;DHT22;9974;52.146;14.668;2023-08-07T15:21:40;19.50;99.90
19652;DHT22;9974;52.146;14.668;2023-08-07T15:24:06;19.20;99.90
19652;DHT22;9974;52.146;14.668;2023-08-07T15:26:31;18.90;99.90
19652;DHT22;9974;52.146;14.668;2023-08-07T15:28:57;18.60;99.90
19652;DHT22;9974;52.146;14.668;2023-08-07T15:31:23;18.40;99.90
19652;DHT22;9974;52.146;14.668;2023-08-07T15:36:17;18.80;99.90
19652;DHT22;9974;52.146;14.668;2023-08-07T15:41:12;18.80;99.90
19652;DHT22;9974;52.146;14.668;2023-08-07T15:43:38;18.30;99.90
19652;DHT22;9974;52.146;14.668;2023-08-07T15:46:04;19.20;99.90
19652;DHT22;9974;52.146;14.668;2023-08-07T15:48:30;18.70;99.90
19652;DHT22;9974;52.146;14.668;2023-08-07T15:50:56;17.90;99.90
19652;DHT22;9974;52.146;14.668;2023-08-07T15:53:22;17.80;99.90
19652;DHT22;9974;52.146;14.668;2023-08-07T15:55:48;17.10;99.90
19652;DHT22;9974;52.146;14.668;2023-08-07T15:58:14;16.80;99.90
19652;DHT22;9974;52.146;14.668;2023-08-07T16:00:42;16.90;99.90
19652;DHT22;9974;52.146;14.668;2023-08-07T16:08:03;15.40;99.90
19652;DHT22;9974;52.146;14.668;2023-08-07T16:10:29;15.60;99.90
19652;DHT22;9974;52.146;14.668;2023-08-07T16:12:56;15.40;99.90
19652;DHT22;9974;52.146;14.668;2023-08-07T16:15:25;15.00;99.90
19652;DHT22;9974;52.146;14.668;2023-08-07T16:20:19;16.10;99.90
19652;DHT22;9974;52.146;14.668;2023-08-07T16:25:11;16.00;99.90
19652;DHT22;9974;52.146;14.668;2023-08-07T16:27:38;16.60;99.90
19652;DHT22;9974;52.146;14.668;2023-08-07T16:30:05;16.40;99.90
19652;DHT22;9974;52.146;14.668;2023-08-07T16:34:58;16.10;99.90
19652;DHT22;9974;52.146;14.668;2023-08-07T16:37:28;16.30;99.90
19652;DHT22;9974;52.146;14.668;2023-08-07T16:39:55;17.00;99.90
19652;DHT22;9974;52.146;14.668;2023-08-07T16:42:21;16.80;99.90
19652;DHT22;9974;52.146;14.668;2023-08-07T16:44:47;16.40;99.90
19652;DHT22;9974;52.146;14.668;2023-08-07T16:47:13;16.40;99.90
19652;DHT22;9974;52.146;14.668;2023-08-07T16:49:39;16.40;99.90
19652;DHT22;9974;52.146;14.668;2023-08-07T16:52:05;16.20;99.90
19652;DHT22;9974;52.146;14.668;2023-08-07T16:54:32;16.10;99.90
19652;DHT22;9974;52.146;14.668;2023-08-07T16:56:58;16.50;99.90
19652;DHT22;9974;52.146;14.668;2023-08-07T16:59:24;16.20;99.90
19652;DHT22;9974;52.146;14.668;2023-08-07T17:01:50;16.00;99.90
19652;DHT22;9974;52.146;14.668;2023-08-07T17:11:34;16.40;99.90
19652;DHT22;9974;52.146;14.668;2023-08-07T17:14:01;16.50;99.90
19652;DHT22;9974;52.146;14.668;2023-08-07T17:21:22;16.70;99.90
19652;DHT22;9974;52.146;14.668;2023-08-07T17:26:15;16.40;99.90
19652;DHT22;9974;52.146;14.668;2023-08-07T17:53:03;15.80;99.90
19652;DHT22;9974;52.146;14.668;2023-08-07T17:57:56;16.20;99.90
19652;DHT22;9974;52.146;14.668;2023-08-07T18:00:22;16.60;99.90
19652;DHT22;9974;52.146;14.668;2023-08-07T18:02:48;15.80;99.90
19652;DHT22;9974;52.146;14.668;2023-08-07T18:05:16;16.10;99.90
19652;DHT22;9974;52.146;14.668;2023-08-07T18:10:09;16.00;99.90
19652;DHT22;9974;52.146;14.668;2023-08-07T18:12:35;16.30;99.90
19652;DHT22;9974;52.146;14.668;2023-08-07T18:15:01;16.10;99.90
19652;DHT22;9974;52.146;14.668;2023-08-07T18:24:47;16.20;99.90
19652;DHT22;9974;52.146;14.668;2023-08-07T18:27:14;16.10;99.90
19652;DHT22;9974;52.146;14.668;2023-08-07T18:29:40;16.70;99.90
19652;DHT22;9974;52.146;14.668;2023-08-07T18:32:06;15.50;99.90
19652;DHT22;9974;52.146;14.668;2023-08-07T18:34:32;15.30;99.90
19652;DHT22;9974;52.146;14.668;2023-08-07T18:36:58;15.70;99.90
19652;DHT22;9974;52.146;14.668;2023-08-07T18:39:23;16.10;99.90
19652;DHT22;9974;52.146;14.668;2023-08-07T18:41:49;15.80;99.90
19652;DHT22;9974;52.146;14.668;2023-08-07T18:44:15;16.00;99.90
19652;DHT22;9974;52.146;14.668;2023-08-07T18:46:41;15.80;99.90
19652;DHT22;9974;52.146;14.668;2023-08-07T18:49:07;16.30;99.90
19652;DHT22;9974;52.146;14.668;2023-08-07T18:54:00;15.80;99.90
19652;DHT22;9974;52.146;14.668;2023-08-07T18:56:26;15.80;99.90
19652;DHT22;9974;52.146;14.668;2023-08-07T18:58:53;15.70;99.90
19652;DHT22;9974;52.146;14.668;2023-08-07T19:01:19;15.90;99.90
19652;DHT22;9974;52.146;14.668;2023-08-07T19:06:10;16.70;99.90
19652;DHT22;9974;52.146;14.668;2023-08-07T19:08:37;16.10;99.90
19652;DHT22;9974;52.146;14.668;2023-08-07T19:18:23;16.00;99.90
19652;DHT22;9974;52.146;14.668;2023-08-07T19:30:35;15.70;99.90
19652;DHT22;9974;52.146;14.668;2023-08-07T19:37:53;16.40;99.90
19652;DHT22;9974;52.146;14.668;2023-08-07T19:45:16;15.30;99.90
19652;DHT22;9974;52.146;14.668;2023-08-07T19:50:08;15.60;99.90
19652;DHT22;9974;52.146;14.668;2023-08-07T19:52:34;16.10;99.90
19652;DHT22;9974;52.146;14.668;2023-08-07T19:57:26;15.50;99.90
19652;DHT22;9974;52.146;14.668;2023-08-07T19:59:51;15.40;99.90
19652;DHT22;9974;52.146;14.668;2023-08-07T20:04:43;15.30;99.90
19652;DHT22;9974;52.146;14.668;2023-08-07T20:09:35;15.30;99.90
19652;DHT22;9974;52.146;14.668;2023-08-07T20:12:07;15.80;99.90
19652;DHT22;9974;52.146;14.668;2023-08-07T20:14:33;16.20;99.90